sensor_id;sensor_type;location;lat;lon;timestamp;temperature;humidity
14101;DHT22;7127;49.372;8.166;2022-07-01T00:02:03;22.30;51.60
14101;DHT22;7127;49.372;8.166;2022-07-01T00:04:30;22.30;51.30
14101;DHT22;7127;49.372;8.166;2022-07-01T00:06:57;22.30;51.20
14101;DHT22;7127;49.372;8.166;2022-07-01T00:09:25;22.30;51.20
14101;DHT22;7127;49.372;8.166;2022-07-01T00:11:52;22.20;51.10
14101;DHT22;7127;49.372;8.166;2022-07-01T00:14:20;22.20;51.00
14101;DHT22;7127;49.372;8.166;2022-07-01T00:16:49;22.10;51.20
14101;DHT22;7127;49.372;8.166;2022-07-01T00:19:16;22.10;51.30
14101;DHT22;7127;49.372;8.166;2022-07-01T00:21:43;22.10;51.50
14101;DHT22;7127;49.372;8.166;2022-07-01T00:24:10;22.10;51.50
14101;DHT22;7127;49.372;8.166;2022-07-01T00:26:37;22.10;51.40
14101;DHT22;7127;49.372;8.166;2022-07-01T00:29:04;22.00;51.40
14101;DHT22;7127;49.372;8.166;2022-07-01T00:31:31;22.10;51.70
14101;DHT22;7127;49.372;8.166;2022-07-01T00:34:00;22.10;51.80
14101;DHT22;7127;49.372;8.166;2022-07-01T00:36:27;22.00;51.70
14101;DHT22;7127;49.372;8.166;2022-07-01T00:38:54;22.10;51.80
14101;DHT22;7127;49.372;8.166;2022-07-01T00:41:20;22.00;51.70
14101;DHT22;7127;49.372;8.166;2022-07-01T00:43:48;22.00;51.80
14101;DHT22;7127;49.372;8.166;2022-07-01T00:46:15;22.00;51.90
14101;DHT22;7127;49.372;8.166;2022-07-01T00:48:44;22.00;51.80
14101;DHT22;7127;49.372;8.166;2022-07-01T00:51:12;22.00;51.90
14101;DHT22;7127;49.372;8.166;2022-07-01T00:53:40;22.00;51.90
14101;DHT22;7127;49.372;8.166;2022-07-01T00:56:07;21.90;51.80
14101;DHT22;7127;49.372;8.166;2022-07-01T00:58:34;21.90;52.00
14101;DHT22;7127;49.372;8.166;2022-07-01T01:01:01;22.00;52.10
14101;DHT22;7127;49.372;8.166;2022-07-01T01:03:30;21.90;52.10
14101;DHT22;7127;49.372;8.166;2022-07-01T01:05:57;21.90;52.10
14101;DHT22;7127;49.372;8.166;2022-07-01T01:08:25;21.90;52.70
14101;DHT22;7127;49.372;8.166;2022-07-01T01:10:53;21.90;52.00
14101;DHT22;7127;49.372;8.166;2022-07-01T01:13:20;21.90;52.10
14101;DHT22;7127;49.372;8.166;2022-07-01T01:15:47;21.90;52.20
14101;DHT22;7127;49.372;8.166;2022-07-01T01:18:14;21.90;52.00
14101;DHT22;7127;49.372;8.166;2022-07-01T01:20:43;21.90;52.00
14101;DHT22;7127;49.372;8.166;2022-07-01T01:23:10;21.90;52.00
14101;DHT22;7127;49.372;8.166;2022-07-01T01:25:37;21.90;52.00
14101;DHT22;7127;49.372;8.166;2022-07-01T01:28:04;21.90;52.00
14101;DHT22;7127;49.372;8.166;2022-07-01T01:30:31;21.90;52.00
14101;DHT22;7127;49.372;8.166;2022-07-01T01:32:58;21.90;51.80
14101;DHT22;7127;49.372;8.166;2022-07-01T01:35:25;21.90;51.90
14101;DHT22;7127;49.372;8.166;2022-07-01T01:37:53;21.90;51.90
14101;DHT22;7127;49.372;8.166;2022-07-01T01:40:20;21.90;52.60
14101;DHT22;7127;49.372;8.166;2022-07-01T01:42:47;21.90;52.00
14101;DHT22;7127;49.372;8.166;2022-07-01T01:45:14;21.90;52.00
14101;DHT22;7127;49.372;8.166;2022-07-01T01:47:42;21.90;51.90
14101;DHT22;7127;49.372;8.166;2022-07-01T01:50:10;21.90;51.90
14101;DHT22;7127;49.372;8.166;2022-07-01T01:52:38;21.80;51.90
14101;DHT22;7127;49.372;8.166;2022-07-01T01:55:10;21.80;51.90
14101;DHT22;7127;49.372;8.166;2022-07-01T01:57:37;21.80;52.10
14101;DHT22;7127;49.372;8.166;2022-07-01T02:00:05;21.80;52.10
14101;DHT22;7127;49.372;8.166;2022-07-01T02:02:33;21.80;52.00
14101;DHT22;7127;49.372;8.166;2022-07-01T02:05:02;21.80;52.00
14101;DHT22;7127;49.372;8.166;2022-07-01T02:07:29;21.80;52.00
14101;DHT22;7127;49.372;8.166;2022-07-01T02:09:56;21.80;52.00
14101;DHT22;7127;49.372;8.166;2022-07-01T02:12:24;21.70;51.90
14101;DHT22;7127;49.372;8.166;2022-07-01T02:14:51;21.80;52.20
14101;DHT22;7127;49.372;8.166;2022-07-01T02:17:18;21.70;51.90
14101;DHT22;7127;49.372;8.166;2022-07-01T02:19:45;21.70;51.90
14101;DHT22;7127;49.372;8.166;2022-07-01T02:22:12;21.70;52.10
14101;DHT22;7127;49.372;8.166;2022-07-01T02:24:39;21.70;52.10
14101;DHT22;7127;49.372;8.166;2022-07-01T02:27:06;21.70;52.10
14101;DHT22;7127;49.372;8.166;2022-07-01T02:29:34;21.70;52.20
14101;DHT22;7127;49.372;8.166;2022-07-01T02:32:02;21.70;52.00
14101;DHT22;7127;49.372;8.166;2022-07-01T02:34:29;21.70;52.10
14101;DHT22;7127;49.372;8.166;2022-07-01T02:36:56;21.60;52.00
14101;DHT22;7127;49.372;8.166;2022-07-01T02:39:23;21.70;52.00
14101;DHT22;7127;49.372;8.166;2022-07-01T02:41:50;21.70;52.10
14101;DHT22;7127;49.372;8.166;2022-07-01T02:44:35;21.60;52.00
14101;DHT22;7127;49.372;8.166;2022-07-01T02:47:03;21.60;51.90
14101;DHT22;7127;49.372;8.166;2022-07-01T02:49:31;21.60;51.80
14101;DHT22;7127;49.372;8.166;2022-07-01T02:51:58;21.60;52.00
14101;DHT22;7127;49.372;8.166;2022-07-01T02:54:25;21.60;52.00
14101;DHT22;7127;49.372;8.166;2022-07-01T02:56:52;21.50;52.00
14101;DHT22;7127;49.372;8.166;2022-07-01T02:59:19;21.50;52.70
14101;DHT22;7127;49.372;8.166;2022-07-01T03:01:47;21.50;52.10
14101;DHT22;7127;49.372;8.166;2022-07-01T03:04:14;21.60;52.20
14101;DHT22;7127;49.372;8.166;2022-07-01T03:06:41;21.50;52.20
14101;DHT22;7127;49.372;8.166;2022-07-01T03:09:08;21.50;52.20
14101;DHT22;7127;49.372;8.166;2022-07-01T03:11:35;21.50;52.10
14101;DHT22;7127;49.372;8.166;2022-07-01T03:14:02;21.50;52.00
14101;DHT22;7127;49.372;8.166;2022-07-01T03:16:29;21.50;51.80
14101;DHT22;7127;49.372;8.166;2022-07-01T03:18:57;21.40;51.70
14101;DHT22;7127;49.372;8.166;2022-07-01T03:21:24;21.40;51.70
14101;DHT22;7127;49.372;8.166;2022-07-01T03:23:51;21.40;51.70
14101;DHT22;7127;49.372;8.166;2022-07-01T03:26:18;21.40;51.80
14101;DHT22;7127;49.372;8.166;2022-07-01T03:28:45;21.40;51.90
14101;DHT22;7127;49.372;8.166;2022-07-01T03:31:12;21.40;52.00
14101;DHT22;7127;49.372;8.166;2022-07-01T03:33:39;21.40;52.10
14101;DHT22;7127;49.372;8.166;2022-07-01T03:36:08;21.40;52.10
14101;DHT22;7127;49.372;8.166;2022-07-01T03:38:35;21.40;52.10
14101;DHT22;7127;49.372;8.166;2022-07-01T03:41:02;21.40;52.10
14101;DHT22;7127;49.372;8.166;2022-07-01T03:43:29;21.40;52.00
14101;DHT22;7127;49.372;8.166;2022-07-01T03:45:56;21.40;52.00
14101;DHT22;7127;49.372;8.166;2022-07-01T03:48:23;21.30;51.90
14101;DHT22;7127;49.372;8.166;2022-07-01T03:50:51;21.40;52.00
14101;DHT22;7127;49.372;8.166;2022-07-01T03:53:19;21.30;52.00
14101;DHT22;7127;49.372;8.166;2022-07-01T03:56:04;21.30;51.90
14101;DHT22;7127;49.372;8.166;2022-07-01T03:58:31;21.30;51.80
14101;DHT22;7127;49.372;8.166;2022-07-01T04:00:58;21.30;51.90
14101;DHT22;7127;49.372;8.166;2022-07-01T04:03:25;21.30;52.00
14101;DHT22;7127;49.372;8.166;2022-07-01T04:05:52;21.30;52.00
14101;DHT22;7127;49.372;8.166;2022-07-01T04:08:20;21.20;52.00
14101;DHT22;7127;49.372;8.166;2022-07-01T04:10:47;21.30;52.00
14101;DHT22;7127;49.372;8.166;2022-07-01T04:13:19;21.30;52.00
14101;DHT22;7127;49.372;8.166;2022-07-01T04:15:46;21.30;52.00
14101;DHT22;7127;49.372;8.166;2022-07-01T04:18:13;21.30;52.00
14101;DHT22;7127;49.372;8.166;2022-07-01T04:20:40;21.30;52.00
14101;DHT22;7127;49.372;8.166;2022-07-01T04:23:07;21.30;51.90
14101;DHT22;7127;49.372;8.166;2022-07-01T04:25:34;21.30;51.90
14101;DHT22;7127;49.372;8.166;2022-07-01T04:28:01;21.30;52.00
14101;DHT22;7127;49.372;8.166;2022-07-01T04:30:29;21.30;52.00
14101;DHT22;7127;49.372;8.166;2022-07-01T04:32:56;21.40;52.00
14101;DHT22;7127;49.372;8.166;2022-07-01T04:35:23;21.40;52.10
14101;DHT22;7127;49.372;8.166;2022-07-01T04:37:50;21.30;51.90
14101;DHT22;7127;49.372;8.166;2022-07-01T04:40:19;21.30;51.80
14101;DHT22;7127;49.372;8.166;2022-07-01T04:42:48;21.40;51.90
14101;DHT22;7127;49.372;8.166;2022-07-01T04:45:14;21.40;51.80
14101;DHT22;7127;49.372;8.166;2022-07-01T04:47:41;21.40;51.90
14101;DHT22;7127;49.372;8.166;2022-07-01T04:50:08;21.40;51.90
14101;DHT22;7127;49.372;8.166;2022-07-01T04:52:35;21.40;51.70
14101;DHT22;7127;49.372;8.166;2022-07-01T04:55:04;21.40;52.20
14101;DHT22;7127;49.372;8.166;2022-07-01T04:57:31;21.40;51.80
14101;DHT22;7127;49.372;8.166;2022-07-01T05:00:00;21.30;51.70
14101;DHT22;7127;49.372;8.166;2022-07-01T05:02:27;21.40;52.00
14101;DHT22;7127;49.372;8.166;2022-07-01T05:04:54;21.40;52.00
14101;DHT22;7127;49.372;8.166;2022-07-01T05:07:21;21.40;52.00
14101;DHT22;7127;49.372;8.166;2022-07-01T05:09:57;21.40;52.00
14101;DHT22;7127;49.372;8.166;2022-07-01T05:12:25;21.40;51.90
14101;DHT22;7127;49.372;8.166;2022-07-01T05:14:52;21.40;51.70
14101;DHT22;7127;49.372;8.166;2022-07-01T05:17:20;21.40;51.80
14101;DHT22;7127;49.372;8.166;2022-07-01T05:20:10;21.40;51.80
14101;DHT22;7127;49.372;8.166;2022-07-01T05:22:55;21.40;51.80
14101;DHT22;7127;49.372;8.166;2022-07-01T05:25:23;21.50;51.90
14101;DHT22;7127;49.372;8.166;2022-07-01T05:27:50;21.50;52.00
14101;DHT22;7127;49.372;8.166;2022-07-01T05:30:17;21.50;51.90
14101;DHT22;7127;49.372;8.166;2022-07-01T05:32:45;21.50;51.80
14101;DHT22;7127;49.372;8.166;2022-07-01T05:35:12;21.50;51.80
14101;DHT22;7127;49.372;8.166;2022-07-01T05:37:40;21.60;52.00
14101;DHT22;7127;49.372;8.166;2022-07-01T05:40:08;21.60;52.00
14101;DHT22;7127;49.372;8.166;2022-07-01T05:42:35;21.60;52.20
14101;DHT22;7127;49.372;8.166;2022-07-01T05:45:03;21.60;52.20
14101;DHT22;7127;49.372;8.166;2022-07-01T05:47:30;21.70;52.30
14101;DHT22;7127;49.372;8.166;2022-07-01T05:49:58;21.70;52.20
14101;DHT22;7127;49.372;8.166;2022-07-01T05:52:25;21.80;52.10
14101;DHT22;7127;49.372;8.166;2022-07-01T05:54:52;21.80;51.90
14101;DHT22;7127;49.372;8.166;2022-07-01T05:57:19;21.80;51.90
14101;DHT22;7127;49.372;8.166;2022-07-01T05:59:46;21.80;51.90
14101;DHT22;7127;49.372;8.166;2022-07-01T06:02:13;21.80;51.90
14101;DHT22;7127;49.372;8.166;2022-07-01T06:04:40;21.90;51.80
14101;DHT22;7127;49.372;8.166;2022-07-01T06:07:10;21.80;51.70
14101;DHT22;7127;49.372;8.166;2022-07-01T06:09:37;21.90;51.70
14101;DHT22;7127;49.372;8.166;2022-07-01T06:12:05;21.90;51.70
14101;DHT22;7127;49.372;8.166;2022-07-01T06:14:32;21.90;51.60
14101;DHT22;7127;49.372;8.166;2022-07-01T06:16:59;21.90;51.60
14101;DHT22;7127;49.372;8.166;2022-07-01T06:19:26;21.90;51.60
14101;DHT22;7127;49.372;8.166;2022-07-01T06:21:53;21.90;51.60
14101;DHT22;7127;49.372;8.166;2022-07-01T06:24:22;21.90;51.60
14101;DHT22;7127;49.372;8.166;2022-07-01T06:26:49;21.90;51.70
14101;DHT22;7127;49.372;8.166;2022-07-01T06:29:16;21.90;51.70
14101;DHT22;7127;49.372;8.166;2022-07-01T06:31:43;21.80;51.70
14101;DHT22;7127;49.372;8.166;2022-07-01T06:34:10;21.90;51.80
14101;DHT22;7127;49.372;8.166;2022-07-01T06:36:37;21.90;51.70
14101;DHT22;7127;49.372;8.166;2022-07-01T06:39:04;21.90;51.60
14101;DHT22;7127;49.372;8.166;2022-07-01T06:41:33;21.90;51.60
14101;DHT22;7127;49.372;8.166;2022-07-01T06:44:01;21.90;51.60
14101;DHT22;7127;49.372;8.166;2022-07-01T06:46:28;21.90;51.50
14101;DHT22;7127;49.372;8.166;2022-07-01T06:48:56;21.90;51.40
14101;DHT22;7127;49.372;8.166;2022-07-01T06:51:23;22.00;51.30
14101;DHT22;7127;49.372;8.166;2022-07-01T06:53:51;22.00;51.30
14101;DHT22;7127;49.372;8.166;2022-07-01T06:56:18;22.10;51.30
14101;DHT22;7127;49.372;8.166;2022-07-01T06:58:47;22.10;51.30
14101;DHT22;7127;49.372;8.166;2022-07-01T07:01:14;22.10;51.30
14101;DHT22;7127;49.372;8.166;2022-07-01T07:03:41;22.10;51.30
14101;DHT22;7127;49.372;8.166;2022-07-01T07:06:08;22.10;51.30
14101;DHT22;7127;49.372;8.166;2022-07-01T07:08:35;22.10;51.30
14101;DHT22;7127;49.372;8.166;2022-07-01T07:11:02;22.10;51.20
14101;DHT22;7127;49.372;8.166;2022-07-01T07:13:29;22.10;51.00
14101;DHT22;7127;49.372;8.166;2022-07-01T07:15:58;22.10;51.00
14101;DHT22;7127;49.372;8.166;2022-07-01T07:18:26;22.10;51.00
14101;DHT22;7127;49.372;8.166;2022-07-01T07:20:53;22.10;51.10
14101;DHT22;7127;49.372;8.166;2022-07-01T07:23:20;22.10;51.30
14101;DHT22;7127;49.372;8.166;2022-07-01T07:25:48;22.10;51.40
14101;DHT22;7127;49.372;8.166;2022-07-01T07:28:16;22.00;51.50
14101;DHT22;7127;49.372;8.166;2022-07-01T07:30:44;22.10;51.80
14101;DHT22;7127;49.372;8.166;2022-07-01T07:33:14;22.10;51.90
14101;DHT22;7127;49.372;8.166;2022-07-01T07:35:44;22.10;52.00
14101;DHT22;7127;49.372;8.166;2022-07-01T07:38:12;22.00;51.80
14101;DHT22;7127;49.372;8.166;2022-07-01T07:40:40;22.00;51.90
14101;DHT22;7127;49.372;8.166;2022-07-01T07:43:07;22.00;52.00
14101;DHT22;7127;49.372;8.166;2022-07-01T07:45:35;22.00;52.10
14101;DHT22;7127;49.372;8.166;2022-07-01T07:48:03;22.00;52.10
14101;DHT22;7127;49.372;8.166;2022-07-01T07:50:39;22.00;52.10
14101;DHT22;7127;49.372;8.166;2022-07-01T07:53:20;22.00;52.30
14101;DHT22;7127;49.372;8.166;2022-07-01T07:55:50;22.00;52.20
14101;DHT22;7127;49.372;8.166;2022-07-01T07:58:26;22.00;52.20
14101;DHT22;7127;49.372;8.166;2022-07-01T08:00:53;22.10;52.10
14101;DHT22;7127;49.372;8.166;2022-07-01T08:03:22;22.00;52.00
14101;DHT22;7127;49.372;8.166;2022-07-01T08:05:53;22.00;51.80
14101;DHT22;7127;49.372;8.166;2022-07-01T08:08:24;22.00;51.80
14101;DHT22;7127;49.372;8.166;2022-07-01T08:11:05;22.00;51.80
14101;DHT22;7127;49.372;8.166;2022-07-01T08:13:37;22.00;51.90
14101;DHT22;7127;49.372;8.166;2022-07-01T08:16:20;22.00;51.90
14101;DHT22;7127;49.372;8.166;2022-07-01T08:19:28;22.00;52.10
14101;DHT22;7127;49.372;8.166;2022-07-01T08:41:30;22.30;52.30
14101;DHT22;7127;49.372;8.166;2022-07-01T09:29:15;23.70;51.70
14101;DHT22;7127;49.372;8.166;2022-07-01T09:31:48;23.80;51.20
14101;DHT22;7127;49.372;8.166;2022-07-01T09:34:16;23.80;50.80
14101;DHT22;7127;49.372;8.166;2022-07-01T09:36:52;23.90;50.80
14101;DHT22;7127;49.372;8.166;2022-07-01T09:42:55;24.10;50.60
14101;DHT22;7127;49.372;8.166;2022-07-01T09:45:25;24.10;50.10
14101;DHT22;7127;49.372;8.166;2022-07-01T09:48:01;24.10;50.00
14101;DHT22;7127;49.372;8.166;2022-07-01T09:50:41;24.10;49.80
14101;DHT22;7127;49.372;8.166;2022-07-01T09:53:24;24.20;49.90
14101;DHT22;7127;49.372;8.166;2022-07-01T09:55:52;24.20;50.00
14101;DHT22;7127;49.372;8.166;2022-07-01T09:58:19;24.20;49.90
14101;DHT22;7127;49.372;8.166;2022-07-01T10:00:49;24.30;49.80
14101;DHT22;7127;49.372;8.166;2022-07-01T10:03:19;24.30;49.90
14101;DHT22;7127;49.372;8.166;2022-07-01T10:05:49;24.40;49.90
14101;DHT22;7127;49.372;8.166;2022-07-01T10:08:42;24.40;49.90
14101;DHT22;7127;49.372;8.166;2022-07-01T10:11:43;24.40;49.70
14101;DHT22;7127;49.372;8.166;2022-07-01T10:14:14;24.50;49.70
14101;DHT22;7127;49.372;8.166;2022-07-01T10:16:45;24.50;49.90
14101;DHT22;7127;49.372;8.166;2022-07-01T10:19:28;24.60;49.90
14101;DHT22;7127;49.372;8.166;2022-07-01T10:22:00;24.60;49.60
14101;DHT22;7127;49.372;8.166;2022-07-01T10:24:28;24.60;49.30
14101;DHT22;7127;49.372;8.166;2022-07-01T10:26:59;24.70;49.40
14101;DHT22;7127;49.372;8.166;2022-07-01T10:29:28;24.70;49.20
14101;DHT22;7127;49.372;8.166;2022-07-01T10:32:02;24.70;48.90
14101;DHT22;7127;49.372;8.166;2022-07-01T10:34:34;24.70;48.60
14101;DHT22;7127;49.372;8.166;2022-07-01T10:37:03;24.70;48.80
14101;DHT22;7127;49.372;8.166;2022-07-01T10:39:55;24.70;48.50
14101;DHT22;7127;49.372;8.166;2022-07-01T10:42:31;24.70;48.40
14101;DHT22;7127;49.372;8.166;2022-07-01T10:45:06;24.70;49.30
14101;DHT22;7127;49.372;8.166;2022-07-01T10:47:35;24.80;48.00
14101;DHT22;7127;49.372;8.166;2022-07-01T10:50:10;24.70;48.10
14101;DHT22;7127;49.372;8.166;2022-07-01T10:52:38;24.70;47.90
14101;DHT22;7127;49.372;8.166;2022-07-01T10:55:07;24.70;47.90
14101;DHT22;7127;49.372;8.166;2022-07-01T10:57:40;24.70;47.90
14101;DHT22;7127;49.372;8.166;2022-07-01T11:00:35;24.70;48.00
14101;DHT22;7127;49.372;8.166;2022-07-01T11:03:08;24.70;47.60
14101;DHT22;7127;49.372;8.166;2022-07-01T11:05:36;24.60;47.90
14101;DHT22;7127;49.372;8.166;2022-07-01T11:08:05;24.70;48.00
14101;DHT22;7127;49.372;8.166;2022-07-01T11:10:33;24.70;47.90
14101;DHT22;7127;49.372;8.166;2022-07-01T11:13:00;24.70;47.90
14101;DHT22;7127;49.372;8.166;2022-07-01T11:15:28;24.80;47.90
14101;DHT22;7127;49.372;8.166;2022-07-01T11:17:57;24.80;47.90
14101;DHT22;7127;49.372;8.166;2022-07-01T11:20:29;24.90;47.80
14101;DHT22;7127;49.372;8.166;2022-07-01T11:22:56;24.90;47.60
14101;DHT22;7127;49.372;8.166;2022-07-01T11:25:23;24.90;47.60
14101;DHT22;7127;49.372;8.166;2022-07-01T11:27:51;24.90;47.50
14101;DHT22;7127;49.372;8.166;2022-07-01T11:30:19;25.00;47.30
14101;DHT22;7127;49.372;8.166;2022-07-01T11:32:48;25.00;47.20
14101;DHT22;7127;49.372;8.166;2022-07-01T11:35:18;25.00;47.10
14101;DHT22;7127;49.372;8.166;2022-07-01T11:38:15;25.00;47.30
14101;DHT22;7127;49.372;8.166;2022-07-01T11:41:02;25.00;47.30
14101;DHT22;7127;49.372;8.166;2022-07-01T11:43:32;25.00;47.60
14101;DHT22;7127;49.372;8.166;2022-07-01T11:46:01;25.10;47.90
14101;DHT22;7127;49.372;8.166;2022-07-01T11:48:33;25.20;48.10
14101;DHT22;7127;49.372;8.166;2022-07-01T11:51:06;25.20;48.20
14101;DHT22;7127;49.372;8.166;2022-07-01T11:53:36;25.40;48.10
14101;DHT22;7127;49.372;8.166;2022-07-01T11:56:03;25.50;48.10
14101;DHT22;7127;49.372;8.166;2022-07-01T11:58:41;25.60;47.90
14101;DHT22;7127;49.372;8.166;2022-07-01T12:01:08;25.80;47.40
14101;DHT22;7127;49.372;8.166;2022-07-01T12:03:36;25.80;47.30
14101;DHT22;7127;49.372;8.166;2022-07-01T12:06:04;25.90;47.10
14101;DHT22;7127;49.372;8.166;2022-07-01T12:08:32;26.00;46.80
14101;DHT22;7127;49.372;8.166;2022-07-01T12:11:00;26.10;46.90
14101;DHT22;7127;49.372;8.166;2022-07-01T12:13:27;26.10;46.80
14101;DHT22;7127;49.372;8.166;2022-07-01T12:16:05;26.20;46.90
14101;DHT22;7127;49.372;8.166;2022-07-01T12:18:33;26.30;46.40
14101;DHT22;7127;49.372;8.166;2022-07-01T12:21:00;26.30;46.40
14101;DHT22;7127;49.372;8.166;2022-07-01T12:23:27;26.40;46.40
14101;DHT22;7127;49.372;8.166;2022-07-01T12:25:54;26.50;46.20
14101;DHT22;7127;49.372;8.166;2022-07-01T12:28:33;26.60;46.00
14101;DHT22;7127;49.372;8.166;2022-07-01T12:31:05;26.70;45.30
14101;DHT22;7127;49.372;8.166;2022-07-01T12:33:38;26.80;45.50
14101;DHT22;7127;49.372;8.166;2022-07-01T12:36:07;26.80;45.50
14101;DHT22;7127;49.372;8.166;2022-07-01T12:38:35;26.90;45.30
14101;DHT22;7127;49.372;8.166;2022-07-01T12:41:02;26.90;45.30
14101;DHT22;7127;49.372;8.166;2022-07-01T12:43:30;27.00;45.10
14101;DHT22;7127;49.372;8.166;2022-07-01T12:46:03;27.10;44.90
14101;DHT22;7127;49.372;8.166;2022-07-01T12:48:47;27.20;44.80
14101;DHT22;7127;49.372;8.166;2022-07-01T12:51:14;27.30;44.50
14101;DHT22;7127;49.372;8.166;2022-07-01T12:53:42;27.30;44.90
14101;DHT22;7127;49.372;8.166;2022-07-01T12:56:22;27.30;44.30
14101;DHT22;7127;49.372;8.166;2022-07-01T12:58:50;27.40;43.10
14101;DHT22;7127;49.372;8.166;2022-07-01T13:01:20;27.40;43.40
14101;DHT22;7127;49.372;8.166;2022-07-01T13:03:47;27.50;42.40
14101;DHT22;7127;49.372;8.166;2022-07-01T13:06:15;27.50;42.30
14101;DHT22;7127;49.372;8.166;2022-07-01T13:08:42;27.50;41.60
14101;DHT22;7127;49.372;8.166;2022-07-01T13:11:09;27.40;41.20
14101;DHT22;7127;49.372;8.166;2022-07-01T13:13:37;27.30;41.40
14101;DHT22;7127;49.372;8.166;2022-07-01T13:16:04;27.30;41.30
14101;DHT22;7127;49.372;8.166;2022-07-01T13:18:33;27.20;41.50
14101;DHT22;7127;49.372;8.166;2022-07-01T13:21:00;27.20;41.60
14101;DHT22;7127;49.372;8.166;2022-07-01T13:23:27;27.10;41.30
14101;DHT22;7127;49.372;8.166;2022-07-01T13:25:54;27.10;41.40
14101;DHT22;7127;49.372;8.166;2022-07-01T13:28:22;27.00;41.60
14101;DHT22;7127;49.372;8.166;2022-07-01T13:30:49;27.00;41.70
14101;DHT22;7127;49.372;8.166;2022-07-01T13:33:16;27.10;41.80
14101;DHT22;7127;49.372;8.166;2022-07-01T13:35:45;27.10;41.80
14101;DHT22;7127;49.372;8.166;2022-07-01T13:38:12;27.20;41.90
14101;DHT22;7127;49.372;8.166;2022-07-01T13:40:39;27.30;42.00
14101;DHT22;7127;49.372;8.166;2022-07-01T13:43:06;27.40;42.00
14101;DHT22;7127;49.372;8.166;2022-07-01T13:45:35;27.40;41.80
14101;DHT22;7127;49.372;8.166;2022-07-01T13:48:27;27.60;41.70
14101;DHT22;7127;49.372;8.166;2022-07-01T13:51:13;27.70;41.80
14101;DHT22;7127;49.372;8.166;2022-07-01T13:53:55;27.80;41.20
14101;DHT22;7127;49.372;8.166;2022-07-01T13:56:24;27.90;41.70
14101;DHT22;7127;49.372;8.166;2022-07-01T13:58:52;28.00;41.40
14101;DHT22;7127;49.372;8.166;2022-07-01T14:01:20;28.00;41.10
14101;DHT22;7127;49.372;8.166;2022-07-01T14:03:49;28.10;41.00
14101;DHT22;7127;49.372;8.166;2022-07-01T14:06:19;28.20;41.00
14101;DHT22;7127;49.372;8.166;2022-07-01T14:08:46;28.30;40.80
14101;DHT22;7127;49.372;8.166;2022-07-01T14:11:14;28.30;40.90
14101;DHT22;7127;49.372;8.166;2022-07-01T14:13:41;28.40;40.60
14101;DHT22;7127;49.372;8.166;2022-07-01T14:16:09;28.40;40.40
14101;DHT22;7127;49.372;8.166;2022-07-01T14:18:36;28.50;40.40
14101;DHT22;7127;49.372;8.166;2022-07-01T14:21:04;28.50;40.30
14101;DHT22;7127;49.372;8.166;2022-07-01T14:23:33;28.50;40.00
14101;DHT22;7127;49.372;8.166;2022-07-01T14:26:00;28.50;39.80
14101;DHT22;7127;49.372;8.166;2022-07-01T14:28:28;28.50;39.70
14101;DHT22;7127;49.372;8.166;2022-07-01T14:30:55;28.50;39.60
14101;DHT22;7127;49.372;8.166;2022-07-01T14:33:22;28.50;39.50
14101;DHT22;7127;49.372;8.166;2022-07-01T14:35:50;28.40;39.40
14101;DHT22;7127;49.372;8.166;2022-07-01T14:38:17;28.40;38.90
14101;DHT22;7127;49.372;8.166;2022-07-01T14:40:46;28.40;38.60
14101;DHT22;7127;49.372;8.166;2022-07-01T14:43:13;28.40;37.90
14101;DHT22;7127;49.372;8.166;2022-07-01T14:45:40;28.30;38.00
14101;DHT22;7127;49.372;8.166;2022-07-01T14:48:08;28.30;37.70
14101;DHT22;7127;49.372;8.166;2022-07-01T14:50:35;28.30;37.80
14101;DHT22;7127;49.372;8.166;2022-07-01T14:53:03;28.30;37.40
14101;DHT22;7127;49.372;8.166;2022-07-01T14:55:30;28.30;37.30
14101;DHT22;7127;49.372;8.166;2022-07-01T14:57:59;28.20;37.20
14101;DHT22;7127;49.372;8.166;2022-07-01T15:00:27;28.20;36.70
14101;DHT22;7127;49.372;8.166;2022-07-01T15:02:55;28.20;36.90
14101;DHT22;7127;49.372;8.166;2022-07-01T15:05:22;28.20;37.00
14101;DHT22;7127;49.372;8.166;2022-07-01T15:07:50;28.20;37.00
14101;DHT22;7127;49.372;8.166;2022-07-01T15:10:17;28.30;36.90
14101;DHT22;7127;49.372;8.166;2022-07-01T15:12:44;28.20;36.80
14101;DHT22;7127;49.372;8.166;2022-07-01T15:15:13;28.20;36.80
14101;DHT22;7127;49.372;8.166;2022-07-01T15:17:42;28.30;37.00
14101;DHT22;7127;49.372;8.166;2022-07-01T15:20:10;28.30;37.00
14101;DHT22;7127;49.372;8.166;2022-07-01T15:22:38;28.30;37.10
14101;DHT22;7127;49.372;8.166;2022-07-01T15:25:06;28.30;37.20
14101;DHT22;7127;49.372;8.166;2022-07-01T15:27:34;28.30;37.50
14101;DHT22;7127;49.372;8.166;2022-07-01T15:30:01;28.30;37.50
14101;DHT22;7127;49.372;8.166;2022-07-01T15:32:30;28.30;37.00
14101;DHT22;7127;49.372;8.166;2022-07-01T15:34:57;28.40;36.80
14101;DHT22;7127;49.372;8.166;2022-07-01T15:37:24;28.40;36.40
14101;DHT22;7127;49.372;8.166;2022-07-01T15:39:51;28.40;36.40
14101;DHT22;7127;49.372;8.166;2022-07-01T15:42:19;28.50;36.60
14101;DHT22;7127;49.372;8.166;2022-07-01T15:50:05;28.60;36.80
14101;DHT22;7127;49.372;8.166;2022-07-01T15:52:32;28.70;36.40
14101;DHT22;7127;49.372;8.166;2022-07-01T15:54:59;28.80;36.40
14101;DHT22;7127;49.372;8.166;2022-07-01T15:57:26;28.80;36.40
14101;DHT22;7127;49.372;8.166;2022-07-01T15:59:53;28.80;36.20
14101;DHT22;7127;49.372;8.166;2022-07-01T16:02:21;28.90;36.10
14101;DHT22;7127;49.372;8.166;2022-07-01T16:04:48;28.90;36.00
14101;DHT22;7127;49.372;8.166;2022-07-01T16:07:21;29.00;35.80
14101;DHT22;7127;49.372;8.166;2022-07-01T16:09:57;29.00;35.30
14101;DHT22;7127;49.372;8.166;2022-07-01T16:12:25;29.00;34.30
14101;DHT22;7127;49.372;8.166;2022-07-01T16:14:53;28.90;34.80
14101;DHT22;7127;49.372;8.166;2022-07-01T16:17:23;28.90;34.40
14101;DHT22;7127;49.372;8.166;2022-07-01T16:19:52;28.80;34.40
14101;DHT22;7127;49.372;8.166;2022-07-01T16:22:22;28.80;34.30
14101;DHT22;7127;49.372;8.166;2022-07-01T16:24:50;28.80;34.30
14101;DHT22;7127;49.372;8.166;2022-07-01T16:27:18;28.70;34.80
14101;DHT22;7127;49.372;8.166;2022-07-01T16:29:47;28.70;34.70
14101;DHT22;7127;49.372;8.166;2022-07-01T16:32:15;28.70;34.90
14101;DHT22;7127;49.372;8.166;2022-07-01T16:34:42;28.70;35.10
14101;DHT22;7127;49.372;8.166;2022-07-01T16:37:13;28.70;35.10
14101;DHT22;7127;49.372;8.166;2022-07-01T16:39:46;28.70;34.50
14101;DHT22;7127;49.372;8.166;2022-07-01T16:42:19;28.70;34.50
14101;DHT22;7127;49.372;8.166;2022-07-01T16:44:51;28.70;34.80
14101;DHT22;7127;49.372;8.166;2022-07-01T16:47:23;28.70;34.70
14101;DHT22;7127;49.372;8.166;2022-07-01T16:49:52;28.60;34.70
14101;DHT22;7127;49.372;8.166;2022-07-01T16:52:19;28.60;34.80
14101;DHT22;7127;49.372;8.166;2022-07-01T16:54:55;28.60;34.90
14101;DHT22;7127;49.372;8.166;2022-07-01T16:57:25;28.50;35.20
14101;DHT22;7127;49.372;8.166;2022-07-01T16:59:52;28.40;35.50
14101;DHT22;7127;49.372;8.166;2022-07-01T17:02:20;28.40;35.80
14101;DHT22;7127;49.372;8.166;2022-07-01T17:04:49;28.30;36.00
14101;DHT22;7127;49.372;8.166;2022-07-01T17:07:17;28.20;36.20
14101;DHT22;7127;49.372;8.166;2022-07-01T17:09:45;28.10;36.40
14101;DHT22;7127;49.372;8.166;2022-07-01T17:12:15;28.10;36.60